Time;durP1;ratioP1;P1;durP2;ratioP2;P2;SDS_P1;SDS_P2;PMS_P1;PMS_P2;Temp;Humidity;BMP_temperature;BMP_pressure;BME280_temperature;BME280_humidity;BME280_pressure;Samples;Min_cycle;Max_cycle;Signal;HPM_P1;HPM_P2
2023/09/01 00:02:22;;;;;;;3.65;2.08;;;;;;;;;;4377619;32;67813;-64
2023/09/01 00:05:10;;;;;;;4.18;1.85;;;;;;;;;;4388113;32;59055;-63
2023/09/01 00:07:57;;;;;;;3.62;2.10;;;;;;;;;;4387536;32;70322;-64
2023/09/01 00:10:44;;;;;;;4.57;2.35;;;;;;;;;;4388030;32;66227;-63
2023/09/01 00:13:30;;;;;;;2.85;1.98;;;;;;;;;;4399790;32;67527;-63
2023/09/01 00:16:17;;;;;;;4.78;2.25;;;;;;;;;;4398805;32;60408;-64
2023/09/01 00:19:03;;;;;;;4.12;3.10;;;;;;;;;;4398234;32;70737;-64
2023/09/01 00:21:50;;;;;;;4.15;2.08;;;;;;;;;;4398243;32;69250;-63
2023/09/01 00:24:37;;;;;;;3.80;2.10;;;;;;;;;;4400720;32;67828;-63
2023/09/01 00:27:25;;;;;;;5.20;2.30;;;;;;;;;;4397597;32;72398;-63
2023/09/01 00:30:12;;;;;;;3.87;2.00;;;;;;;;;;4397771;32;66220;-63
2023/09/01 00:32:59;;;;;;;3.20;2.08;;;;;;;;;;4398513;32;67779;-64
2023/09/01 00:35:45;;;;;;;;;;;;;;;;;;4377188;32;67723;-63
2023/09/01 00:38:32;;;;;;;3.40;1.90;;;;;;;;;;4398176;32;71590;-64
2023/09/01 00:41:18;;;;;;;3.17;2.05;;;;;;;;;;4399494;32;65817;-63
2023/09/01 00:44:08;;;;;;;4.10;2.08;;;;;;;;;;4387474;32;66437;-63
2023/09/01 00:46:54;;;;;;;2.50;2.03;;;;;;;;;;4398411;32;59328;-64
2023/09/01 00:49:41;;;;;;;2.75;1.73;;;;;;;;;;4387864;32;69472;-64
2023/09/01 00:52:28;;;;;;;4.15;2.15;;;;;;;;;;4398310;32;69601;-64
2023/09/01 00:55:15;;;;;;;4.43;2.37;;;;;;;;;;4387436;32;67331;-64
2023/09/01 00:58:04;;;;;;;2.87;2.05;;;;;;;;;;4398369;32;59213;-63
2023/09/01 01:00:52;;;;;;;3.62;2.53;;;;;;;;;;4399275;32;69511;-63
2023/09/01 01:03:49;;;;;;;4.75;2.70;;;;;;;;;;4397245;32;68844;-64
2023/09/01 01:06:47;;;;;;;4.18;2.40;;;;;;;;;;4387282;32;66896;-64
2023/09/01 01:09:49;;;;;;;4.40;2.55;;;;;;;;;;4398143;32;71561;-64
2023/09/01 01:12:45;;;;;;;5.03;2.87;;;;;;;;;;4387014;32;66647;-63
2023/09/01 01:15:32;;;;;;;4.87;2.10;;;;;;;;;;4397878;32;66687;-64
2023/09/01 01:18:19;;;;;;;4.22;2.55;;;;;;;;;;4397821;32;60382;-64
2023/09/01 01:21:11;;;;;;;3.92;1.95;;;;;;;;;;4385975;32;71348;-62
2023/09/01 01:23:59;;;;;;;3.35;2.20;;;;;;;;;;4387053;32;65968;-64
2023/09/01 01:26:45;;;;;;;4.07;2.17;;;;;;;;;;4397453;32;66773;-64
2023/09/01 01:29:32;;;;;;;;;;;;;;;;;;4399256;32;59094;-63
2023/09/01 01:32:21;;;;;;;3.95;2.08;;;;;;;;;;4397836;32;70182;-64
2023/09/01 01:35:07;;;;;;;4.22;2.53;;;;;;;;;;4392479;32;69343;-64
2023/09/01 01:38:25;;;;;;;3.60;2.30;;;;;;;;;;4408841;32;66934;-64
2023/09/01 01:41:20;;;;;;;3.95;2.30;;;;;;;;;;4387944;32;71557;-64
2023/09/01 01:44:07;;;;;;;3.83;2.33;;;;;;;;;;4388463;32;64957;-63
2023/09/01 01:46:55;;;;;;;3.58;2.15;;;;;;;;;;4405948;32;66738;-65
2023/09/01 01:49:41;;;;;;;4.00;2.20;;;;;;;;;;4403669;32;67072;-63
2023/09/01 01:52:27;;;;;;;3.42;1.87;;;;;;;;;;4417660;32;72302;-63
2023/09/01 01:55:14;;;;;;;6.65;2.20;;;;;;;;;;4416185;32;66252;-64
2023/09/01 01:58:01;;;;;;;3.67;2.35;;;;;;;;;;4409546;32;67998;-63
2023/09/01 02:00:49;;;;;;;;;;;;;;;;;;4419820;32;60042;-63
2023/09/01 02:03:36;;;;;;;;;;;;;;;;;;4399268;32;69783;-64
2023/09/01 02:06:22;;;;;;;4.55;2.53;;;;;;;;;;4420293;32;69584;-64
2023/09/01 02:09:09;;;;;;;3.08;2.10;;;;;;;;;;4397662;32;68457;-63
2023/09/01 02:11:55;;;;;;;4.60;2.67;;;;;;;;;;4419689;32;72281;-63
2023/09/01 02:14:42;;;;;;;5.85;2.95;;;;;;;;;;4417297;32;70633;-64
2023/09/01 02:17:28;;;;;;;6.62;2.97;;;;;;;;;;4405821;32;69569;-64
2023/09/01 02:20:18;;;;;;;6.68;2.87;;;;;;;;;;4405968;32;67667;-64
2023/09/01 02:23:04;;;;;;;4.85;2.60;;;;;;;;;;4408263;32;71004;-64
2023/09/01 02:25:51;;;;;;;5.87;2.87;;;;;;;;;;4408118;32;66024;-64
2023/09/01 02:28:38;;;;;;;3.87;2.22;;;;;;;;;;4395106;32;67882;-64
2023/09/01 02:31:25;;;;;;;3.62;2.45;;;;;;;;;;4396358;32;59889;-64
2023/09/01 02:34:11;;;;;;;3.92;2.30;;;;;;;;;;4397945;32;70518;-64
2023/09/01 02:36:58;;;;;;;;;;;;;;;;;;4397071;32;68377;-64
2023/09/01 02:39:45;;;;;;;4.97;2.40;;;;;;;;;;4396832;32;66798;-64
2023/09/01 02:42:32;;;;;;;3.80;2.42;;;;;;;;;;4386366;32;60096;-62
2023/09/01 02:45:19;;;;;;;6.60;3.00;;;;;;;;;;4396588;32;70365;-63
2023/09/01 02:48:06;;;;;;;3.78;2.35;;;;;;;;;;4396479;32;68490;-64
2023/09/01 02:50:52;;;;;;;4.37;2.53;;;;;;;;;;4386096;32;66781;-64
2023/09/01 02:53:39;;;;;;;6.65;2.67;;;;;;;;;;4397804;32;70433;-64
2023/09/01 02:56:26;;;;;;;4.18;2.45;;;;;;;;;;4396546;32;65931;-63
2023/09/01 02:59:13;;;;;;;4.60;2.30;;;;;;;;;;4396794;32;67437;-64
2023/09/01 03:01:59;;;;;;;6.03;2.62;;;;;;;;;;4385431;32;59629;-63
2023/09/01 03:04:49;;;;;;;5.03;2.65;;;;;;;;;;4397641;32;71884;-63
2023/09/01 03:07:36;;;;;;;5.72;2.92;;;;;;;;;;4385329;32;65793;-63
2023/09/01 03:10:22;;;;;;;5.32;2.92;;;;;;;;;;4396727;32;67911;-63
2023/09/01 03:13:09;;;;;;;2.70;2.10;;;;;;;;;;4399294;32;59126;-64
2023/09/01 03:15:56;;;;;;;;;;;;;;;;;;4397849;32;70350;-63
2023/09/01 03:18:42;;;;;;;5.07;2.92;;;;;;;;;;4376949;32;69247;-64
2023/09/01 03:21:33;;;;;;;5.68;2.45;;;;;;;;;;4398877;32;67663;-64
2023/09/01 03:24:20;;;;;;;5.07;2.30;;;;;;;;;;4399076;32;71870;-63
2023/09/01 03:27:07;;;;;;;;;;;;;;;;;;4399243;32;70438;-64
2023/09/01 03:29:56;;;;;;;3.58;2.20;;;;;;;;;;4399798;32;69794;-62
2023/09/01 03:32:43;;;;;;;3.15;1.80;;;;;;;;;;4400192;32;67690;-64
2023/09/01 03:35:29;;;;;;;4.22;2.50;;;;;;;;;;4400189;32;71884;-63
2023/09/01 03:38:17;;;;;;;3.80;2.00;;;;;;;;;;4388485;32;65025;-65
2023/09/01 03:41:04;;;;;;;5.80;2.72;;;;;;;;;;4388212;32;66927;-64
2023/09/01 03:43:51;;;;;;;3.45;2.20;;;;;;;;;;4388377;32;60355;-63
2023/09/01 03:46:37;;;;;;;5.30;2.15;;;;;;;;;;4398704;32;69398;-63
2023/09/01 03:49:26;;;;;;;5.87;2.40;;;;;;;;;;4399896;32;69557;-63
2023/09/01 03:52:12;;;;;;;4.00;2.05;;;;;;;;;;4398770;32;67804;-63
2023/09/01 03:54:59;;;;;;;;;;;;;;;;;;4399333;32;59254;-63
2023/09/01 03:57:45;;;;;;;3.15;2.00;;;;;;;;;;4398751;32;70103;-63
2023/09/01 04:00:32;;;;;;;4.85;2.75;;;;;;;;;;4398550;32;68470;-64
2023/09/01 04:03:19;;;;;;;5.03;2.40;;;;;;;;;;4398375;32;66667;-63
2023/09/01 04:06:06;;;;;;;3.53;2.10;;;;;;;;;;4399746;32;70865;-64
2023/09/01 04:08:52;;;;;;;;;;;;;;;;;;4388361;32;65898;-63
2023/09/01 04:11:39;;;;;;;3.60;2.35;;;;;;;;;;4387729;32;68414;-63
2023/09/01 04:14:25;;;;;;;4.65;2.37;;;;;;;;;;4398675;32;60153;-63
2023/09/01 04:17:12;;;;;;;4.10;1.90;;;;;;;;;;4398220;32;72017;-63
2023/09/01 04:19:59;;;;;;;3.45;2.33;;;;;;;;;;4398308;32;65074;-64
2023/09/01 04:25:05;;;;;;;3.42;2.08;;;;;;;;;;3847578;37;43019;-64
2023/09/01 04:27:52;;;;;;;5.12;2.83;;;;;;;;;;4410183;32;59113;-63
2023/09/01 04:30:38;;;;;;;6.15;2.30;;;;;;;;;;4398608;32;71170;-64
2023/09/01 04:33:26;;;;;;;;;;;;;;;;;;4411317;32;68859;-64
2023/09/01 04:36:12;;;;;;;4.53;2.15;;;;;;;;;;4398140;32;66440;-64
2023/09/01 04:38:58;;;;;;;3.80;1.65;;;;;;;;;;4411208;32;70941;-63
2023/09/01 04:41:45;;;;;;;4.57;2.58;;;;;;;;;;4411094;32;66061;-64
2023/09/01 04:44:33;;;;;;;3.62;2.20;;;;;;;;;;4409568;32;66193;-63
2023/09/01 04:47:19;;;;;;;6.03;2.35;;;;;;;;;;4410059;32;59055;-63
2023/09/01 04:50:06;;;;;;;2.60;1.80;;;;;;;;;;4411254;32;71700;-63
2023/09/01 04:52:55;;;;;;;3.03;1.95;;;;;;;;;;4409543;32;65205;-63
2023/09/01 04:55:42;;;;;;;2.78;1.90;;;;;;;;;;4410784;32;67708;-63
2023/09/01 04:58:29;;;;;;;4.03;2.28;;;;;;;;;;4410985;32;60090;-62
2023/09/01 05:04:00;;;;;;;5.25;2.33;;;;;;;;;;3847598;37;43862;-63
2023/09/01 05:06:47;;;;;;;6.18;2.40;;;;;;;;;;4409586;32;60507;-64
2023/09/01 05:09:33;;;;;;;3.47;2.25;;;;;;;;;;4409659;32;70561;-64
2023/09/01 05:12:21;;;;;;;3.78;2.60;;;;;;;;;;4409279;32;70559;-63
2023/09/01 05:15:08;;;;;;;4.72;1.95;;;;;;;;;;4410977;32;67601;-64
2023/09/01 05:17:54;;;;;;;4.57;2.17;;;;;;;;;;4410861;32;71458;-64
2023/09/01 05:20:41;;;;;;;5.07;2.28;;;;;;;;;;4410081;32;65964;-64
2023/09/01 05:23:31;;;;;;;3.80;2.35;;;;;;;;;;4409185;32;67392;-63
2023/09/01 05:26:18;;;;;;;3.70;2.50;;;;;;;;;;4410980;32;59336;-64
2023/09/01 05:29:04;;;;;;;;;;;;;;;;;;4398649;32;72506;-63
2023/09/01 05:31:50;;;;;;;4.75;2.30;;;;;;;;;;4409740;32;65368;-64
2023/09/01 05:34:37;;;;;;;2.70;2.05;;;;;;;;;;4398173;32;66044;-64
2023/09/01 05:37:23;;;;;;;2.37;1.67;;;;;;;;;;4410370;32;60478;-63
2023/09/01 05:40:10;;;;;;;3.78;2.60;;;;;;;;;;4410725;32;70685;-63
2023/09/01 05:42:57;;;;;;;3.45;2.10;;;;;;;;;;4408725;32;70029;-64
2023/09/01 05:45:46;;;;;;;2.67;2.03;;;;;;;;;;4411109;32;67687;-64
2023/09/01 05:48:34;;;;;;;4.28;2.60;;;;;;;;;;4399339;32;72063;-64
2023/09/01 05:51:21;;;;;;;3.53;2.15;;;;;;;;;;4410754;32;66207;-63
2023/09/01 05:54:07;;;;;;;4.45;2.70;;;;;;;;;;4410564;32;69345;-63
2023/09/01 05:56:54;;;;;;;;;;;;;;;;;;4398562;32;67284;-64
2023/09/01 05:59:40;;;;;;;2.25;1.15;;;;;;;;;;4409071;32;71917;-64
2023/09/01 06:02:27;;;;;;;4.30;2.05;;;;;;;;;;4398093;32;65039;-62
2023/09/01 06:05:14;;;;;;;1.80;1.30;;;;;;;;;;4409578;32;66971;-63
2023/09/01 06:08:01;;;;;;;2.83;2.15;;;;;;;;;;4398579;32;60349;-64
2023/09/01 06:10:47;;;;;;;3.00;1.83;;;;;;;;;;4410371;32;70496;-64
2023/09/01 06:13:34;;;;;;;3.58;2.20;;;;;;;;;;4406119;32;68521;-63
2023/09/01 06:16:20;;;;;;;;;;;;;;;;;;4400343;32;67575;-63
2023/09/01 06:19:06;;;;;;;3.95;2.33;;;;;;;;;;4388457;32;59336;-63
2023/09/01 06:21:53;;;;;;;3.42;2.20;;;;;;;;;;4401387;32;69669;-63
2023/09/01 06:24:40;;;;;;;;;;;;;;;;;;4398953;32;69300;-63
2023/09/01 06:27:26;;;;;;;4.07;2.40;;;;;;;;;;4400413;32;67884;-63
2023/09/01 06:30:13;;;;;;;4.85;2.25;;;;;;;;;;4398743;32;70659;-63
2023/09/01 06:32:59;;;;;;;4.82;2.42;;;;;;;;;;4388441;32;65912;-63
2023/09/01 06:35:46;;;;;;;3.85;2.20;;;;;;;;;;4399244;32;67484;-64
2023/09/01 06:38:32;;;;;;;4.85;2.03;;;;;;;;;;4398933;32;59185;-64
2023/09/01 06:41:19;;;;;;;;;;;;;;;;;;4400404;32;69519;-63
2023/09/01 06:44:05;;;;;;;3.58;2.35;;;;;;;;;;4399072;32;65888;-64
2023/09/01 06:46:52;;;;;;;;;;;;;;;;;;4398314;32;68180;-64
2023/09/01 06:49:39;;;;;;;3.05;2.30;;;;;;;;;;4398730;32;58811;-64
2023/09/01 06:52:25;;;;;;;5.18;2.35;;;;;;;;;;4387616;32;70703;-63
2023/09/01 06:55:12;;;;;;;3.17;2.37;;;;;;;;;;4398381;32;69313;-64
2023/09/01 06:58:03;;;;;;;4.20;2.17;;;;;;;;;;4398166;32;67892;-64
2023/09/01 07:00:51;;;;;;;6.93;2.33;;;;;;;;;;4387462;32;70502;-64
2023/09/01 07:03:38;;;;;;;4.15;1.58;;;;;;;;;;4399520;32;65144;-63
2023/09/01 07:06:25;;;;;;;3.85;2.42;;;;;;;;;;4398661;32;67807;-63
2023/09/01 07:09:11;;;;;;;;;;;;;;;;;;4387776;32;67774;-63
2023/09/01 07:11:58;;;;;;;3.10;2.30;;;;;;;;;;4398162;32;70855;-63
2023/09/01 07:14:44;;;;;;;6.95;2.10;;;;;;;;;;4386489;32;65913;-64
2023/09/01 07:17:31;;;;;;;2.85;2.42;;;;;;;;;;4398156;32;66726;-63
2023/09/01 07:20:17;;;;;;;2.12;1.25;;;;;;;;;;4397968;32;60643;-63
2023/09/01 07:23:04;;;;;;;1.50;1.17;;;;;;;;;;4399208;32;70744;-63
2023/09/01 07:25:51;;;;;;;2.92;1.73;;;;;;;;;;4398304;32;67918;-64
2023/09/01 07:28:38;;;;;;;3.33;2.10;;;;;;;;;;4399219;32;66904;-64
2023/09/01 07:31:25;;;;;;;2.85;1.67;;;;;;;;;;4398306;32;59287;-63
2023/09/01 07:34:11;;;;;;;3.50;2.30;;;;;;;;;;4399204;32;70189;-64
2023/09/01 07:36:57;;;;;;;2.47;2.10;;;;;;;;;;4399373;32;68342;-64
2023/09/01 07:39:44;;;;;;;5.75;2.20;;;;;;;;;;4397277;32;68090;-63
2023/09/01 07:42:34;;;;;;;2.83;1.90;;;;;;;;;;4397432;32;71674;-62
2023/09/01 07:45:20;;;;;;;4.32;2.12;;;;;;;;;;4397202;32;66615;-63
2023/09/01 07:48:08;;;;;;;3.33;2.20;;;;;;;;;;4397515;32;67804;-64
2023/09/01 07:50:55;;;;;;;3.03;1.90;;;;;;;;;;4387491;32;60054;-63
2023/09/01 07:53:41;;;;;;;3.65;2.37;;;;;;;;;;4396964;32;71503;-63
2023/09/01 07:56:28;;;;;;;2.72;2.28;;;;;;;;;;4397538;32;65949;-63
2023/09/01 07:59:14;;;;;;;3.83;2.25;;;;;;;;;;4397725;32;67296;-63
2023/09/01 08:02:02;;;;;;;5.18;2.33;;;;;;;;;;4397331;32;60269;-63
2023/09/01 08:04:49;;;;;;;3.15;2.20;;;;;;;;;;4398826;32;70292;-64
2023/09/01 08:07:36;;;;;;;2.35;1.58;;;;;;;;;;4397877;32;68375;-64
2023/09/01 08:10:23;;;;;;;3.87;2.40;;;;;;;;;;4397369;32;67560;-64
2023/09/01 08:13:09;;;;;;;;;;;;;;;;;;4398830;32;71648;-63
2023/09/01 08:15:56;;;;;;;5.68;2.47;;;;;;;;;;4397554;32;65843;-64
2023/09/01 08:18:42;;;;;;;;;;;;;;;;;;4375585;32;67947;-63
2023/09/01 08:21:30;;;;;;;5.30;2.58;;;;;;;;;;4376065;32;68007;-63
2023/09/01 08:24:16;;;;;;;3.45;2.10;;;;;;;;;;4375867;32;71628;-64
2023/09/01 08:27:03;;;;;;;;;;;;;;;;;;4375784;32;66938;-64
2023/09/01 08:29:49;;;;;;;3.65;2.30;;;;;;;;;;4397176;32;67604;-64
2023/09/01 08:32:38;;;;;;;;;;;;;;;;;;4399143;32;59968;-63
2023/09/01 08:35:24;;;;;;;3.40;1.75;;;;;;;;;;4385700;32;71150;-65
2023/09/01 08:38:11;;;;;;;2.22;1.73;;;;;;;;;;4397102;32;69508;-64
2023/09/01 08:41:02;;;;;;;2.37;2.00;;;;;;;;;;4386028;32;67643;-63
2023/09/01 08:43:51;;;;;;;4.50;2.17;;;;;;;;;;4387216;32;70702;-64
2023/09/01 08:46:38;;;;;;;5.80;2.58;;;;;;;;;;4398460;32;70920;-64
2023/09/01 08:49:26;;;;;;;7.22;2.92;;;;;;;;;;4396929;32;69524;-64
2023/09/01 08:52:13;;;;;;;5.05;1.87;;;;;;;;;;4385808;32;68408;-63
2023/09/01 08:55:00;;;;;;;3.08;1.95;;;;;;;;;;4396892;32;71939;-64
2023/09/01 08:57:50;;;;;;;2.53;1.70;;;;;;;;;;4398154;32;65907;-63
2023/09/01 09:00:37;;;;;;;5.35;2.30;;;;;;;;;;4385996;32;68005;-64
2023/09/01 09:03:22;;;;;;;2.55;1.90;;;;;;;;;;4396461;32;59345;-63
2023/09/01 09:06:16;;;;;;;3.45;2.35;;;;;;;;;;4398381;32;70443;-63
2023/09/01 09:09:21;;;;;;;2.83;1.77;;;;;;;;;;4398481;32;68282;-63
2023/09/01 09:12:08;;;;;;;3.67;2.20;;;;;;;;;;4398119;32;67736;-64
2023/09/01 09:14:54;;;;;;;2.83;2.35;;;;;;;;;;4399455;32;59693;-63
2023/09/01 09:17:44;;;;;;;;;;;;;;;;;;4398342;32;70565;-63
2023/09/01 09:20:38;;;;;;;4.07;1.95;;;;;;;;;;4385496;32;70620;-64
2023/09/01 09:23:44;;;;;;;3.05;2.40;;;;;;;;;;4397634;32;66842;-63
2023/09/01 09:26:32;;;;;;;3.45;2.42;;;;;;;;;;4385585;32;71910;-63
2023/09/01 09:29:19;;;;;;;3.80;2.10;;;;;;;;;;4396583;32;66238;-64
2023/09/01 09:32:15;;;;;;;2.97;2.00;;;;;;;;;;4397697;32;67745;-64
2023/09/01 09:35:10;;;;;;;4.15;2.20;;;;;;;;;;4398049;32;60460;-64
2023/09/01 09:37:58;;;;;;;3.25;2.12;;;;;;;;;;4396639;32;71019;-63
2023/09/01 09:40:58;;;;;;;3.72;2.15;;;;;;;;;;4396533;32;65552;-64
2023/09/01 09:43:49;;;;;;;5.40;2.40;;;;;;;;;;4384691;32;68320;-65
2023/09/01 09:46:44;;;;;;;2.42;2.08;;;;;;;;;;4396530;32;59750;-63
2023/09/01 09:49:34;;;;;;;2.65;2.03;;;;;;;;;;4386840;32;70731;-63
2023/09/01 09:52:20;;;;;;;7.45;2.03;;;;;;;;;;4398730;32;69352;-63
2023/09/01 09:55:06;;;;;;;;;;;;;;;;;;4399189;32;66710;-64
2023/09/01 09:58:03;;;;;;;2.87;2.40;;;;;;;;;;4388674;32;71797;-64
2023/09/01 10:01:17;;;;;;;3.40;2.37;;;;;;;;;;4398893;32;69635;-63
2023/09/01 10:04:07;;;;;;;3.90;2.58;;;;;;;;;;4398228;32;70389;-64
2023/09/01 10:06:55;;;;;;;3.12;2.28;;;;;;;;;;4398722;32;67222;-63
2023/09/01 10:09:43;;;;;;;6.35;2.80;;;;;;;;;;4388594;32;70763;-63
2023/09/01 10:12:29;;;;;;;3.40;2.45;;;;;;;;;;4398991;32;65642;-63
2023/09/01 10:15:16;;;;;;;3.95;2.30;;;;;;;;;;4400147;32;67779;-64
2023/09/01 10:18:04;;;;;;;3.72;2.10;;;;;;;;;;4400062;32;60219;-64
2023/09/01 10:20:51;;;;;;;4.00;2.70;;;;;;;;;;4387610;32;70181;-64
2023/09/01 10:23:38;;;;;;;4.28;2.30;;;;;;;;;;4387933;32;68256;-63
2023/09/01 10:26:24;;;;;;;3.55;2.37;;;;;;;;;;4398533;32;67578;-63
2023/09/01 10:29:12;;;;;;;;;;;;;;;;;;4388621;32;60189;-63
2023/09/01 10:32:16;;;;;;;3.20;2.10;;;;;;;;;;4388270;32;69189;-63
2023/09/01 10:35:02;;;;;;;5.68;2.65;;;;;;;;;;4398831;32;69432;-63
2023/09/01 10:38:10;;;;;;;6.20;2.30;;;;;;;;;;4398973;32;66654;-64
2023/09/01 10:40:56;;;;;;;3.35;2.28;;;;;;;;;;4398572;32;70649;-63
2023/09/01 10:43:44;;;;;;;3.17;1.73;;;;;;;;;;4399747;32;65131;-63
2023/09/01 10:46:31;;;;;;;3.92;2.60;;;;;;;;;;4399698;32;67947;-64
2023/09/01 10:49:19;;;;;;;3.42;2.53;;;;;;;;;;4387760;32;59021;-63
2023/09/01 10:52:16;;;;;;;5.47;2.75;;;;;;;;;;4399691;32;71599;-63
2023/09/01 10:55:07;;;;;;;4.75;2.60;;;;;;;;;;4398416;32;64970;-64
2023/09/01 10:57:54;;;;;;;4.95;2.50;;;;;;;;;;4387516;32;68096;-63
2023/09/01 11:00:40;;;;;;;6.75;2.60;;;;;;;;;;4399639;32;60220;-64
2023/09/01 11:03:29;;;;;;;3.53;2.25;;;;;;;;;;4398939;32;69609;-63
2023/09/01 11:06:16;;;;;;;2.67;2.20;;;;;;;;;;4398546;32;69523;-65
2023/09/01 11:09:03;;;;;;;2.87;1.98;;;;;;;;;;4398436;32;67682;-63
2023/09/01 11:11:53;;;;;;;3.35;2.42;;;;;;;;;;4387638;32;71737;-63
2023/09/01 11:14:55;;;;;;;6.50;2.53;;;;;;;;;;4387213;32;65709;-63
2023/09/01 11:17:45;;;;;;;4.07;2.87;;;;;;;;;;4397934;32;69498;-64
2023/09/01 11:20:31;;;;;;;3.12;2.05;;;;;;;;;;4387800;32;67737;-63
2023/09/01 11:23:22;;;;;;;3.12;2.40;;;;;;;;;;4398272;32;71929;-64
2023/09/01 11:26:09;;;;;;;3.37;2.17;;;;;;;;;;4388876;32;66780;-67
2023/09/01 11:28:56;;;;;;;3.87;2.08;;;;;;;;;;4390542;32;66946;-64
2023/09/01 11:31:43;;;;;;;3.70;2.75;;;;;;;;;;4387197;32;60571;-63
2023/09/01 11:34:39;;;;;;;3.80;1.95;;;;;;;;;;4397669;32;70443;-64
2023/09/01 11:37:39;;;;;;;3.15;1.65;;;;;;;;;;4399307;32;68264;-64
2023/09/01 11:40:27;;;;;;;4.82;2.70;;;;;;;;;;4398157;32;67533;-63
2023/09/01 11:43:14;;;;;;;4.05;2.40;;;;;;;;;;4386587;32;60887;-64
2023/09/01 11:46:02;;;;;;;4.68;2.83;;;;;;;;;;4397648;32;69383;-63
2023/09/01 11:48:48;;;;;;;2.67;2.00;;;;;;;;;;4398995;32;69251;-63
2023/09/01 11:51:37;;;;;;;1.37;1.10;;;;;;;;;;4386273;32;68465;-63
2023/09/01 11:54:24;;;;;;;4.32;2.00;;;;;;;;;;4398843;32;70872;-63
2023/09/01 11:57:14;;;;;;;5.95;2.50;;;;;;;;;;4386457;32;66797;-63
2023/09/01 12:00:00;;;;;;;4.28;2.42;;;;;;;;;;4396982;32;65837;-63
2023/09/01 12:02:47;;;;;;;;;;;;;;;;;;4397926;32;60390;-63
2023/09/01 12:05:38;;;;;;;4.85;3.10;;;;;;;;;;4397381;32;69609;-63
2023/09/01 12:08:25;;;;;;;3.87;2.50;;;;;;;;;;4397847;32;64918;-63
2023/09/01 12:11:13;;;;;;;4.10;2.80;;;;;;;;;;4397647;32;66987;-64
2023/09/01 12:14:25;;;;;;;3.62;2.47;;;;;;;;;;4397733;32;59971;-62
2023/09/01 12:17:20;;;;;;;5.12;2.67;;;;;;;;;;4397071;32;70256;-63
2023/09/01 12:20:07;;;;;;;4.72;2.80;;;;;;;;;;4396516;32;70016;-63
2023/09/01 12:22:54;;;;;;;3.92;2.55;;;;;;;;;;4396641;32;68317;-63
2023/09/01 12:25:43;;;;;;;1.55;1.10;;;;;;;;;;4398222;32;72148;-63
2023/09/01 12:28:32;;;;;;;4.37;2.80;;;;;;;;;;4398702;32;65783;-62
2023/09/01 12:31:19;;;;;;;5.12;2.70;;;;;;;;;;4396969;32;68485;-63
2023/09/01 12:34:05;;;;;;;;;;;;;;;;;;4385851;32;67460;-61
2023/09/01 12:36:54;;;;;;;3.35;2.50;;;;;;;;;;4398419;32;70725;-62
2023/09/01 12:39:41;;;;;;;4.12;2.70;;;;;;;;;;4386594;32;66199;-62
2023/09/01 12:42:27;;;;;;;;;;;;;;;;;;4399118;32;67712;-62
2023/09/01 12:45:14;;;;;;;4.10;2.42;;;;;;;;;;4399594;32;60067;-61
2023/09/01 12:48:00;;;;;;;4.07;2.70;;;;;;;;;;4397977;32;70579;-63
2023/09/01 12:50:47;;;;;;;5.18;3.17;;;;;;;;;;4398044;32;68542;-63
2023/09/01 12:53:34;;;;;;;3.17;2.35;;;;;;;;;;4375545;32;66368;-63
2023/09/01 12:56:21;;;;;;;2.78;2.47;;;;;;;;;;4375679;32;60164;-62
2023/09/01 12:59:07;;;;;;;3.45;2.40;;;;;;;;;;4397831;32;70747;-61
2023/09/01 13:01:55;;;;;;;2.70;2.28;;;;;;;;;;4397695;32;68942;-62
2023/09/01 13:04:43;;;;;;;3.72;2.60;;;;;;;;;;4385265;32;68870;-63
2023/09/01 13:07:30;;;;;;;3.40;2.60;;;;;;;;;;4397828;32;71940;-62
2023/09/01 13:10:17;;;;;;;5.18;2.70;;;;;;;;;;4398263;32;65849;-62
2023/09/01 13:13:04;;;;;;;3.92;2.20;;;;;;;;;;4386023;32;67716;-63
2023/09/01 13:15:51;;;;;;;;;;;;;;;;;;4398622;32;59768;-62
2023/09/01 13:18:39;;;;;;;3.42;2.78;;;;;;;;;;4396530;32;69637;-63
2023/09/01 13:21:25;;;;;;;4.22;2.70;;;;;;;;;;4397896;32;65947;-62
2023/09/01 13:24:12;;;;;;;3.87;2.40;;;;;;;;;;4396917;32;68328;-63
2023/09/01 13:26:58;;;;;;;8.07;2.78;;;;;;;;;;4399611;32;60083;-63
2023/09/01 13:29:45;;;;;;;5.10;2.78;;;;;;;;;;4400306;32;69483;-63
2023/09/01 13:32:31;;;;;;;4.97;2.70;;;;;;;;;;4399322;32;68529;-63
2023/09/01 13:35:18;;;;;;;4.47;2.95;;;;;;;;;;4400548;32;66741;-63
2023/09/01 13:38:04;;;;;;;7.00;3.03;;;;;;;;;;4366444;32;72304;-63
2023/09/01 13:40:55;;;;;;;4.40;2.75;;;;;;;;;;4388196;32;65899;-63
2023/09/01 13:43:41;;;;;;;5.93;2.33;;;;;;;;;;4400498;32;67835;-62
2023/09/01 13:46:30;;;;;;;4.53;2.58;;;;;;;;;;4388293;32;67527;-62
2023/09/01 13:49:19;;;;;;;4.03;2.60;;;;;;;;;;4399133;32;70647;-63
2023/09/01 13:52:06;;;;;;;5.87;2.70;;;;;;;;;;4401371;32;65711;-63
2023/09/01 13:54:53;;;;;;;2.90;2.00;;;;;;;;;;4400272;32;67120;-63
2023/09/01 13:57:40;;;;;;;6.12;3.62;;;;;;;;;;4377391;32;60826;-63
2023/09/01 14:00:30;;;;;;;3.70;2.70;;;;;;;;;;4398259;32;70322;-63
2023/09/01 14:03:16;;;;;;;5.68;2.47;;;;;;;;;;4399693;32;68313;-63
2023/09/01 14:06:03;;;;;;;3.35;2.30;;;;;;;;;;4398860;32;67889;-62
2023/09/01 14:08:50;;;;;;;3.42;2.12;;;;;;;;;;4377911;32;71873;-63
2023/09/01 14:11:36;;;;;;;4.18;2.05;;;;;;;;;;4398700;32;70682;-62
2023/09/01 14:14:23;;;;;;;;;;;;;;;;;;4400452;32;68619;-62
2023/09/01 14:17:10;;;;;;;4.70;2.43;;;;;;;;;;4400231;32;67888;-63
2023/09/01 14:19:57;;;;;;;3.92;2.47;;;;;;;;;;4398525;32;71901;-63
2023/09/01 14:22:43;;;;;;;4.97;2.75;;;;;;;;;;4387569;32;67159;-63
2023/09/01 14:25:29;;;;;;;;;;;;;;;;;;4398979;32;67119;-63
2023/09/01 14:28:17;;;;;;;3.97;2.37;;;;;;;;;;4400556;32;59363;-62
2023/09/01 14:31:06;;;;;;;4.40;2.22;;;;;;;;;;4402019;32;69602;-65
2023/09/01 14:33:52;;;;;;;5.60;2.62;;;;;;;;;;4399845;32;69280;-63
2023/09/01 14:36:39;;;;;;;4.90;2.50;;;;;;;;;;4399575;32;67813;-62
2023/09/01 14:39:25;;;;;;;4.40;2.90;;;;;;;;;;4398865;32;58944;-62
2023/09/01 14:42:12;;;;;;;9.40;2.42;;;;;;;;;;4387778;32;69624;-62
2023/09/01 14:44:58;;;;;;;;;;;;;;;;;;4387341;32;69922;-62
2023/09/01 14:47:45;;;;;;;4.85;2.70;;;;;;;;;;4398050;32;68687;-64
2023/09/01 14:50:31;;;;;;;6.20;2.58;;;;;;;;;;4376091;32;72211;-63
2023/09/01 14:53:20;;;;;;;4.50;3.00;;;;;;;;;;4387955;32;66685;-63
2023/09/01 14:56:11;;;;;;;4.57;2.60;;;;;;;;;;4399857;32;67774;-64
2023/09/01 14:58:58;;;;;;;4.60;2.95;;;;;;;;;;4377143;32;67636;-62
2023/09/01 15:01:47;;;;;;;5.97;3.00;;;;;;;;;;4397399;32;72381;-63
2023/09/01 15:04:34;;;;;;;;;;;;;;;;;;4400965;32;65818;-63
2023/09/01 15:07:21;;;;;;;4.85;2.92;;;;;;;;;;4398498;32;67684;-63
2023/09/01 15:10:09;;;;;;;6.25;3.30;;;;;;;;;;4399799;32;59230;-64
2023/09/01 15:12:55;;;;;;;4.28;2.83;;;;;;;;;;4399575;32;69699;-64
2023/09/01 15:15:41;;;;;;;7.25;3.72;;;;;;;;;;4399104;32;69275;-63
2023/09/01 15:18:28;;;;;;;6.07;3.70;;;;;;;;;;4387369;32;67738;-64
2023/09/01 15:21:14;;;;;;;7.20;3.80;;;;;;;;;;4399677;32;71675;-64
2023/09/01 15:24:01;;;;;;;9.52;3.65;;;;;;;;;;4397980;32;70334;-63
2023/09/01 15:26:48;;;;;;;5.75;3.65;;;;;;;;;;4399092;32;68993;-64
2023/09/01 15:29:35;;;;;;;9.52;3.83;;;;;;;;;;4399160;32;66719;-64
2023/09/01 15:32:21;;;;;;;6.78;4.03;;;;;;;;;;4398305;32;70904;-63
2023/09/01 15:35:08;;;;;;;;;;;;;;;;;;4388217;32;66934;-64
2023/09/01 15:37:55;;;;;;;9.38;4.07;;;;;;;;;;4398247;32;68142;-63
2023/09/01 15:40:43;;;;;;;7.15;4.25;;;;;;;;;;4386973;32;61170;-63
2023/09/01 15:43:31;;;;;;;7.28;4.40;;;;;;;;;;4387501;32;70832;-62
2023/09/01 15:46:17;;;;;;;6.93;4.10;;;;;;;;;;4398492;32;68596;-63
2023/09/01 15:51:41;;;;;;;7.65;4.22;;;;;;;;;;3846338;37;43627;-63
2023/09/01 15:54:28;;;;;;;6.97;3.85;;;;;;;;;;4411476;32;60166;-63
2023/09/01 15:57:15;;;;;;;6.30;4.07;;;;;;;;;;4374946;32;71380;-63
2023/09/01 16:00:02;;;;;;;;;;;;;;;;;;4396645;32;70390;-63
2023/09/01 16:02:50;;;;;;;7.95;3.72;;;;;;;;;;4411554;32;67889;-63
2023/09/01 16:05:37;;;;;;;;;;;;;;;;;;4399547;32;71681;-62
2023/09/01 16:08:23;;;;;;;8.98;4.70;;;;;;;;;;4399818;32;65950;-63
2023/09/01 16:11:10;;;;;;;;;;;;;;;;;;4384220;32;66247;-63
2023/09/01 16:13:56;;;;;;;8.50;5.00;;;;;;;;;;4384227;32;59446;-63
2023/09/01 16:16:44;;;;;;;8.80;4.72;;;;;;;;;;4395652;32;71970;-63
2023/09/01 16:19:30;;;;;;;9.98;5.15;;;;;;;;;;4383946;32;64734;-63
2023/09/01 16:22:17;;;;;;;8.55;4.35;;;;;;;;;;4395370;32;67553;-63
2023/09/01 16:25:04;;;;;;;7.65;4.55;;;;;;;;;;4370114;32;60593;-63
2023/09/01 16:27:45;;;;;;;8.63;5.03;;;;;;;;;;3847542;37;43801;-63
2023/09/01 16:30:34;;;;;;;9.82;5.53;;;;;;;;;;4399460;32;59161;-63
2023/09/01 16:33:20;;;;;;;10.60;5.28;;;;;;;;;;4412258;32;70342;-63
2023/09/01 16:36:07;;;;;;;11.00;5.32;;;;;;;;;;4409876;32;68276;-64
2023/09/01 16:38:53;;;;;;;11.23;5.10;;;;;;;;;;4411307;32;67790;-63
2023/09/01 16:41:42;;;;;;;;;;;;;;;;;;4411271;32;71531;-63
2023/09/01 16:44:29;;;;;;;11.07;4.95;;;;;;;;;;4411274;32;65015;-63
2023/09/01 16:47:19;;;;;;;10.35;5.07;;;;;;;;;;4409664;32;67227;-63
2023/09/01 16:50:06;;;;;;;11.98;5.22;;;;;;;;;;4409803;32;60207;-63
2023/09/01 16:52:52;;;;;;;8.70;5.12;;;;;;;;;;4409609;32;71525;-64
2023/09/01 16:55:39;;;;;;;9.05;5.53;;;;;;;;;;4398830;32;65022;-63
2023/09/01 16:58:26;;;;;;;8.95;5.20;;;;;;;;;;4410750;32;66548;-63
2023/09/01 17:01:13;;;;;;;;;;;;;;;;;;4411995;32;59210;-63
2023/09/01 17:03:59;;;;;;;10.80;5.60;;;;;;;;;;4387514;32;70820;-63
2023/09/01 17:06:47;;;;;;;8.20;5.18;;;;;;;;;;4398620;32;69423;-63